Ruby Junction, Minnesota
Current Conditions -  °F | °C
As of 4:53 AM on Friday 28 Nov 2014 (Local Time) from KHIB Reporting Station
Light Snow Light Snow  
Wind Chill: -3°   Ceiling: 3900
Heat Index:   Visibility: 5mi
Dew Point:   Wind: 6mph
Humidity: 73%   Direction: 120°ESE
Pressure: 30.07"   Gusts: NA
Location:  47.4158°N, 93.0053°W
Report Text: KHIB 281053Z AUTO 12005KT 5SM -SN OVC039 M14/M18 A3007 RMK AO2 SNB12 SLP221 P0000 T11391178
Loading
Personal Weather Stations






























Interactive Weather Map New forecast layout! Learn more

10-Day Weather Forecast

Advertisements
Track Severe Weather on mobile